createdAt,value
2019-04-06T00:00:17.132Z,6.63
2019-04-06T00:01:17.131Z,6.68
2019-04-06T00:02:17.110Z,6.63
2019-04-06T00:03:17.104Z,6.63
2019-04-06T00:04:17.112Z,6.62
2019-04-06T00:05:17.085Z,6.68
2019-04-06T00:06:17.072Z,6.58
2019-04-06T00:07:17.075Z,6.63
2019-04-06T00:08:17.050Z,6.65
2019-04-06T00:09:17.105Z,6.61
2019-04-06T00:10:17.035Z,6.61
2019-04-06T00:11:17.015Z,6.62
2019-04-06T00:12:17.005Z,6.62
2019-04-06T00:13:16.999Z,6.65
2019-04-06T00:14:17.018Z,6.68
2019-04-06T00:15:16.972Z,6.63
2019-04-06T00:16:16.964Z,6.56
2019-04-06T00:17:16.970Z,6.65
2019-04-06T00:18:16.939Z,6.68
2019-04-06T00:19:16.960Z,6.63
2019-04-06T00:20:16.922Z,6.62
2019-04-06T00:21:16.903Z,6.56
2019-04-06T00:22:16.897Z,6.56
2019-04-06T00:23:16.940Z,6.56
2019-04-06T00:24:16.901Z,6.54
2019-04-06T00:25:16.860Z,6.59
2019-04-06T00:26:16.852Z,6.58
2019-04-06T00:27:16.843Z,6.58
2019-04-06T00:28:16.829Z,6.54
2019-04-06T00:29:16.859Z,6.63
2019-04-06T00:30:16.822Z,6.58
2019-04-06T00:31:16.796Z,6.58
2019-04-06T00:32:16.790Z,6.65
2019-04-06T00:33:16.784Z,6.58
2019-04-06T00:34:16.799Z,6.65
2019-04-06T00:35:16.758Z,6.58
2019-04-06T00:36:16.753Z,6.73
2019-04-06T00:37:16.732Z,6.54
2019-04-06T00:38:16.726Z,6.63
2019-04-06T00:39:16.741Z,6.63
2019-04-06T00:40:16.703Z,6.59
2019-04-06T00:41:16.692Z,6.65
2019-04-06T00:42:16.698Z,6.62
2019-04-06T00:43:16.678Z,6.61
2019-04-06T00:44:16.971Z,6.66
2019-04-06T00:45:16.658Z,6.71
2019-04-06T00:46:16.642Z,6.63
2019-04-06T00:47:16.639Z,6.69
2019-04-06T00:48:16.632Z,6.68
2019-04-06T00:49:16.643Z,6.66
2019-04-06T00:50:16.682Z,6.68
2019-04-06T00:51:16.595Z,6.65
2019-04-06T00:52:16.574Z,6.79
2019-04-06T00:53:16.566Z,6.71
2019-04-06T00:54:17.205Z,6.80
2019-04-06T00:55:16.592Z,6.80
2019-04-06T00:56:16.543Z,6.87
2019-04-06T00:57:16.515Z,6.84
2019-04-06T00:58:16.510Z,6.84
2019-04-06T00:59:16.578Z,6.84
2019-04-06T01:00:16.490Z,6.90
2019-04-06T01:01:16.480Z,6.86
2019-04-06T01:02:16.471Z,6.83
2019-04-06T01:03:16.455Z,6.89
2019-04-06T01:04:16.469Z,6.84
2019-04-06T01:05:16.501Z,6.83
2019-04-06T01:06:16.419Z,6.86
2019-04-06T01:07:16.417Z,6.83
2019-04-06T01:08:16.406Z,6.87
2019-04-06T01:09:16.416Z,6.91
2019-04-06T01:10:16.397Z,6.94
2019-04-06T01:11:16.386Z,6.91
2019-04-06T01:12:16.370Z,6.91
2019-04-06T01:13:16.425Z,6.94
2019-04-06T01:14:16.377Z,7.02
2019-04-06T01:15:16.333Z,6.95
2019-04-06T01:16:16.343Z,7.01
2019-04-06T01:17:16.320Z,6.95
2019-04-06T01:18:16.306Z,6.98
2019-04-06T01:19:16.337Z,7.02
2019-04-06T01:20:16.281Z,6.91
2019-04-06T01:21:16.270Z,7.01
2019-04-06T01:22:16.313Z,6.97
2019-04-06T01:23:16.260Z,7.02
2019-04-06T01:24:16.281Z,6.99
2019-04-06T01:25:16.225Z,6.91
2019-04-06T01:26:16.230Z,6.98
2019-04-06T01:27:16.210Z,6.98
2019-04-06T01:28:16.207Z,7.01
2019-04-06T01:29:16.221Z,6.99
2019-04-06T01:30:16.247Z,6.91
2019-04-06T01:31:16.163Z,6.97
2019-04-06T01:32:16.143Z,6.91
2019-04-06T01:33:16.133Z,6.98
2019-04-06T01:34:16.152Z,6.99
2019-04-06T01:35:16.109Z,7.01
2019-04-06T01:36:16.109Z,6.99
2019-04-06T01:37:16.099Z,6.97
2019-04-06T01:38:16.158Z,6.98
2019-04-06T01:39:16.108Z,6.98
2019-04-06T01:40:16.060Z,6.98
2019-04-06T01:41:16.046Z,7.01
2019-04-06T01:42:16.042Z,6.91
2019-04-06T01:43:16.033Z,6.99
2019-04-06T01:44:16.046Z,6.97
2019-04-06T01:45:16.010Z,6.98
2019-04-06T01:46:15.998Z,7.01
2019-04-06T01:47:15.987Z,7.08
2019-04-06T01:48:15.973Z,7.09
2019-04-06T01:49:16.093Z,7.09
2019-04-06T01:50:15.951Z,7.09
2019-04-06T01:51:15.953Z,7.09
2019-04-06T01:52:15.923Z,7.15
2019-04-06T01:53:15.919Z,7.09
2019-04-06T01:54:15.935Z,7.16
2019-04-06T01:55:15.898Z,7.08
2019-04-06T01:56:18.777Z,7.08
2019-04-06T01:57:15.874Z,7.13
2019-04-06T01:58:15.859Z,7.09
2019-04-06T01:59:15.873Z,7.12
2019-04-06T02:00:15.843Z,7.08
2019-04-06T02:01:15.829Z,7.16
2019-04-06T02:02:15.822Z,7.09
2019-04-06T02:03:15.807Z,7.15
2019-04-06T02:04:15.830Z,7.09
2019-04-06T02:05:15.826Z,7.12
2019-04-06T02:06:15.774Z,7.13
2019-04-06T02:07:15.761Z,7.09
2019-04-06T02:08:15.808Z,7.08
2019-04-06T02:09:15.781Z,7.09
2019-04-06T02:10:15.740Z,7.12
2019-04-06T02:11:15.730Z,7.13
2019-04-06T02:12:15.713Z,7.15
2019-04-06T02:13:15.719Z,7.13
2019-04-06T02:14:15.732Z,7.08
2019-04-06T02:15:15.690Z,7.15
2019-04-06T02:16:15.680Z,7.08
2019-04-06T02:17:15.669Z,7.13
2019-04-06T02:18:15.667Z,7.12
2019-04-06T02:19:15.680Z,7.09
2019-04-06T02:20:15.643Z,7.12
2019-04-06T02:21:15.626Z,7.13
2019-04-06T02:22:15.624Z,7.09
2019-04-06T02:23:15.613Z,7.08
2019-04-06T02:24:15.617Z,7.09
2019-04-06T02:25:15.583Z,7.09
2019-04-06T02:26:15.573Z,7.15
2019-04-06T02:27:15.562Z,7.12
2019-04-06T02:28:15.549Z,7.12
2019-04-06T02:29:15.623Z,7.09
2019-04-06T02:30:15.551Z,7.09
2019-04-06T02:31:15.527Z,7.12
2019-04-06T02:32:15.511Z,7.13
2019-04-06T02:33:15.502Z,7.12
2019-04-06T02:34:15.515Z,7.12
2019-04-06T02:35:15.480Z,7.08
2019-04-06T02:36:15.469Z,7.07
2019-04-06T02:37:15.468Z,7.09
2019-04-06T02:38:15.472Z,7.08
2019-04-06T02:39:15.458Z,7.15
2019-04-06T02:40:15.482Z,7.09
2019-04-06T02:41:15.426Z,7.08
2019-04-06T02:42:15.410Z,7.17
2019-04-06T02:43:15.386Z,7.17
2019-04-06T02:44:15.412Z,7.15
2019-04-06T02:45:15.370Z,7.22
2019-04-06T02:46:15.360Z,7.20
2019-04-06T02:47:15.346Z,7.20
2019-04-06T02:48:15.348Z,7.19
2019-04-06T02:49:15.352Z,7.08
2019-04-06T02:50:15.315Z,7.13
2019-04-06T02:51:15.297Z,7.13
2019-04-06T02:52:15.296Z,7.22
2019-04-06T02:53:15.451Z,7.22
2019-04-06T02:54:15.330Z,7.23
2019-04-06T02:55:15.253Z,7.20
2019-04-06T02:56:15.252Z,7.19
2019-04-06T02:57:15.246Z,7.16
2019-04-06T02:58:15.225Z,7.15
2019-04-06T02:59:15.238Z,7.17
2019-04-06T03:00:15.195Z,7.17
2019-04-06T03:01:15.187Z,7.22
2019-04-06T03:02:15.197Z,7.20
2019-04-06T03:03:15.176Z,7.24
2019-04-06T03:04:15.191Z,7.17
2019-04-06T03:05:15.160Z,7.19
2019-04-06T03:06:15.139Z,7.19
2019-04-06T03:07:15.130Z,7.22
2019-04-06T03:08:15.125Z,7.22
2019-04-06T03:09:15.222Z,7.26
2019-04-06T03:10:15.098Z,7.19
2019-04-06T03:11:15.096Z,7.27
2019-04-06T03:12:15.075Z,7.29
2019-04-06T03:13:15.060Z,7.22
2019-04-06T03:14:15.078Z,7.23
2019-04-06T03:15:15.073Z,7.24
2019-04-06T03:16:15.040Z,7.23
2019-04-06T03:17:15.044Z,7.24
2019-04-06T03:18:15.012Z,7.32
2019-04-06T03:19:15.004Z,7.32
2019-04-06T03:20:15.014Z,7.24
2019-04-06T03:21:15.014Z,7.31
2019-04-06T03:22:14.966Z,7.31
2019-04-06T03:23:15.157Z,7.35
2019-04-06T03:24:14.962Z,7.26
2019-04-06T03:25:14.961Z,7.27
2019-04-06T03:26:14.928Z,7.37
2019-04-06T03:27:14.911Z,7.34
2019-04-06T03:28:14.909Z,7.24
2019-04-06T03:29:14.898Z,7.37
2019-04-06T03:30:14.925Z,7.32
2019-04-06T03:31:14.881Z,7.27
2019-04-06T03:32:14.893Z,7.35
2019-04-06T03:33:14.869Z,7.34
2019-04-06T03:34:20.011Z,7.34
2019-04-06T03:35:15.861Z,7.40
2019-04-06T03:36:14.823Z,7.37
2019-04-06T03:37:14.818Z,7.35
2019-04-06T03:38:14.954Z,7.32
2019-04-06T03:39:14.788Z,7.35
2019-04-06T03:40:14.802Z,7.29
2019-04-06T03:41:14.762Z,7.32
2019-04-06T03:42:14.835Z,7.29
2019-04-06T03:43:14.742Z,7.35
2019-04-06T03:44:14.731Z,7.34
2019-04-06T03:45:14.959Z,7.32
2019-04-06T03:46:14.895Z,7.31
2019-04-06T03:47:14.702Z,7.40
2019-04-06T03:48:14.696Z,7.34
2019-04-06T03:49:14.674Z,7.34
2019-04-06T03:50:14.698Z,7.31
2019-04-06T03:51:14.663Z,7.26
2019-04-06T03:52:14.642Z,7.31
2019-04-06T03:53:14.794Z,7.32
2019-04-06T03:54:14.624Z,7.38
2019-04-06T03:55:14.735Z,7.34
2019-04-06T03:56:14.600Z,7.27
2019-04-06T03:57:16.911Z,7.24
2019-04-06T03:58:14.580Z,7.26
2019-04-06T03:59:14.576Z,7.37
2019-04-06T04:00:14.595Z,7.32
2019-04-06T04:01:14.541Z,7.29
2019-04-06T04:02:14.550Z,7.35
2019-04-06T04:03:14.536Z,7.31
2019-04-06T04:04:14.516Z,7.32
2019-04-06T04:05:14.547Z,7.32
2019-04-06T04:06:14.488Z,7.40
2019-04-06T04:07:14.532Z,7.32
2019-04-06T04:08:14.471Z,7.31
2019-04-06T04:09:14.461Z,7.34
2019-04-06T04:10:14.698Z,7.34
2019-04-06T04:11:14.435Z,7.31
2019-04-06T04:12:14.423Z,7.29
2019-04-06T04:13:14.478Z,7.34
2019-04-06T04:14:14.419Z,7.40
2019-04-06T04:15:14.430Z,7.31
2019-04-06T04:16:14.379Z,7.40
2019-04-06T04:17:14.369Z,7.31
2019-04-06T04:18:14.355Z,7.35
2019-04-06T04:19:14.480Z,7.37
2019-04-06T04:20:14.356Z,7.32
2019-04-06T04:21:14.319Z,7.35
2019-04-06T04:22:14.314Z,7.34
2019-04-06T04:23:14.313Z,7.38
2019-04-06T04:24:14.292Z,7.42
2019-04-06T04:25:14.312Z,7.37
2019-04-06T04:26:14.445Z,7.35
2019-04-06T04:27:27.333Z,7.38
2019-04-06T04:28:15.241Z,7.42
2019-04-06T04:29:14.240Z,7.37
2019-04-06T04:30:15.617Z,7.38
2019-04-06T04:31:14.234Z,7.47
2019-04-06T04:32:14.197Z,7.44
2019-04-06T04:33:14.265Z,7.42
2019-04-06T04:34:14.338Z,7.37
2019-04-06T04:35:14.198Z,7.45
2019-04-06T04:36:14.159Z,7.47
2019-04-06T04:37:14.161Z,7.35
2019-04-06T04:38:14.154Z,7.45
2019-04-06T04:39:14.125Z,7.49
2019-04-06T04:40:14.156Z,7.34
2019-04-06T04:41:14.292Z,7.41
2019-04-06T04:42:14.118Z,7.35
2019-04-06T04:43:14.097Z,7.53
2019-04-06T04:44:14.202Z,7.45
2019-04-06T04:45:14.151Z,7.50
2019-04-06T04:46:14.086Z,7.47
2019-04-06T04:47:14.046Z,7.53
2019-04-06T04:48:14.039Z,7.50
2019-04-06T04:49:14.018Z,7.40
2019-04-06T04:50:14.045Z,7.50
2019-04-06T04:51:14.005Z,7.53
2019-04-06T04:52:14.079Z,7.41
2019-04-06T04:53:14.064Z,7.45
2019-04-06T04:54:13.972Z,7.47
2019-04-06T04:55:13.988Z,7.50
2019-04-06T04:56:13.942Z,7.50
2019-04-06T04:57:13.934Z,7.55
2019-04-06T04:58:13.921Z,7.53
2019-04-06T04:59:13.917Z,7.47
2019-04-06T05:00:13.922Z,7.53
2019-04-06T05:01:13.885Z,7.47
2019-04-06T05:02:13.877Z,7.56
2019-04-06T05:03:13.875Z,7.47
2019-04-06T05:04:13.855Z,7.47
2019-04-06T05:05:13.898Z,7.50
2019-04-06T05:06:13.836Z,7.52
2019-04-06T05:07:13.822Z,7.53
2019-04-06T05:08:13.812Z,7.50
2019-04-06T05:09:13.808Z,7.45
2019-04-06T05:10:13.814Z,7.53
2019-04-06T05:11:13.784Z,7.44
2019-04-06T05:12:13.766Z,7.47
2019-04-06T05:13:13.763Z,7.52
2019-04-06T05:14:13.752Z,7.44
2019-04-06T05:15:13.768Z,7.49
2019-04-06T05:16:13.734Z,7.53
2019-04-06T05:17:13.718Z,7.56
2019-04-06T05:18:13.717Z,7.50
2019-04-06T05:19:13.700Z,7.56
2019-04-06T05:20:13.723Z,7.52
2019-04-06T05:21:13.856Z,7.55
2019-04-06T05:22:13.679Z,7.49
2019-04-06T05:23:13.666Z,7.58
2019-04-06T05:24:13.652Z,7.55
2019-04-06T05:25:13.663Z,7.59
2019-04-06T05:26:13.620Z,7.56
2019-04-06T05:27:13.634Z,7.53
2019-04-06T05:28:13.614Z,7.58
2019-04-06T05:29:24.638Z,7.50
2019-04-06T05:30:13.615Z,7.58
2019-04-06T05:31:13.563Z,7.66
2019-04-06T05:32:13.659Z,7.63
2019-04-06T05:33:13.544Z,7.62
2019-04-06T05:34:13.529Z,7.62
2019-04-06T05:35:13.565Z,7.67
2019-04-06T05:36:13.518Z,7.63
2019-04-06T05:37:13.495Z,7.75
2019-04-06T05:38:13.490Z,7.75
2019-04-06T05:39:13.471Z,7.77
2019-04-06T05:40:13.499Z,7.69
2019-04-06T05:41:13.457Z,7.75
2019-04-06T05:42:13.449Z,7.63
2019-04-06T05:43:13.434Z,7.67
2019-04-06T05:44:13.425Z,7.77
2019-04-06T05:45:13.458Z,7.77
2019-04-06T05:46:13.435Z,7.75
2019-04-06T05:47:13.388Z,7.77
2019-04-06T05:48:13.385Z,7.75
2019-04-06T05:49:13.373Z,7.82
2019-04-06T05:50:13.382Z,7.75
2019-04-06T05:51:13.354Z,7.75
2019-04-06T05:52:13.343Z,7.72
2019-04-06T05:53:13.323Z,7.81
2019-04-06T05:54:13.315Z,7.84
2019-04-06T05:55:13.336Z,7.74
2019-04-06T05:56:13.295Z,7.69
2019-04-06T05:57:13.286Z,7.75
2019-04-06T05:58:13.279Z,7.72
2019-04-06T05:59:13.263Z,7.82
2019-04-06T06:00:13.285Z,7.81
2019-04-06T06:01:13.239Z,7.78
2019-04-06T06:02:13.223Z,7.87
2019-04-06T06:03:15.323Z,7.85
2019-04-06T06:04:13.208Z,7.87
2019-04-06T06:05:13.225Z,7.92
2019-04-06T06:06:13.425Z,7.94
2019-04-06T06:07:13.176Z,7.93
2019-04-06T06:08:13.158Z,7.97
2019-04-06T06:09:13.154Z,8.04
2019-04-06T06:10:13.183Z,8.04
2019-04-06T06:11:13.128Z,8.08
2019-04-06T06:12:13.118Z,8.10
2019-04-06T06:13:13.111Z,8.14
2019-04-06T06:14:13.097Z,8.11
2019-04-06T06:15:13.107Z,8.12
2019-04-06T06:16:13.080Z,8.14
2019-04-06T06:17:14.371Z,8.26
2019-04-06T06:18:13.055Z,8.20
2019-04-06T06:19:13.053Z,8.33
2019-04-06T06:20:13.056Z,8.37
2019-04-06T06:21:13.027Z,8.47
2019-04-06T06:22:13.007Z,8.47
2019-04-06T06:23:12.999Z,8.48
2019-04-06T06:24:13.199Z,8.53
2019-04-06T06:25:13.007Z,8.60
2019-04-06T06:26:12.969Z,8.57
2019-04-06T06:27:12.960Z,8.71
2019-04-06T06:28:15.090Z,8.68
2019-04-06T06:29:12.940Z,8.60
2019-04-06T06:30:12.949Z,8.63
2019-04-06T06:31:12.919Z,8.72
2019-04-06T06:32:12.908Z,8.73
2019-04-06T06:33:12.887Z,8.75
2019-04-06T06:34:12.881Z,8.87
2019-04-06T06:35:13.039Z,8.87
2019-04-06T06:36:12.856Z,8.96
2019-04-06T06:37:12.849Z,8.93
2019-04-06T06:38:12.840Z,9.05
2019-04-06T06:39:12.823Z,8.99
2019-04-06T06:40:12.847Z,8.97
2019-04-06T06:41:12.807Z,9.05
2019-04-06T06:42:13.017Z,9.05
2019-04-06T06:43:12.785Z,9.20
2019-04-06T06:44:12.786Z,9.15
2019-04-06T06:45:12.798Z,9.15
2019-04-06T06:46:12.758Z,9.16
2019-04-06T06:47:12.742Z,9.06
2019-04-06T06:48:12.730Z,9.16
2019-04-06T06:49:12.728Z,9.18
2019-04-06T06:50:12.734Z,9.05
2019-04-06T06:51:12.695Z,9.16
2019-04-06T06:52:12.690Z,9.23
2019-04-06T06:53:12.676Z,9.24
2019-04-06T06:54:12.666Z,9.21
2019-04-06T06:55:12.678Z,9.30
2019-04-06T06:56:12.659Z,9.27
2019-04-06T06:57:12.630Z,9.27
2019-04-06T06:58:12.619Z,9.25
2019-04-06T06:59:12.607Z,9.31
2019-04-06T07:00:12.621Z,9.32
2019-04-06T07:01:12.771Z,9.35
2019-04-06T07:02:12.574Z,9.40
2019-04-06T07:03:12.636Z,9.48
2019-04-06T07:04:12.556Z,9.43
2019-04-06T07:05:12.543Z,9.46
2019-04-06T07:06:12.625Z,9.43
2019-04-06T07:07:12.527Z,9.52
2019-04-06T07:08:12.516Z,9.57
2019-04-06T07:09:12.496Z,9.60
2019-04-06T07:10:12.483Z,9.53
2019-04-06T07:11:12.506Z,9.50
2019-04-06T07:12:12.463Z,9.60
2019-04-06T07:13:12.456Z,9.76
2019-04-06T07:14:12.469Z,9.78
2019-04-06T07:15:12.432Z,9.83
2019-04-06T07:16:12.446Z,9.82
2019-04-06T07:17:12.414Z,9.82
2019-04-06T07:18:12.396Z,9.85
2019-04-06T07:19:12.384Z,9.82
2019-04-06T07:20:12.554Z,9.82
2019-04-06T07:21:12.387Z,9.86
2019-04-06T07:22:12.362Z,9.93
2019-04-06T07:23:12.339Z,9.97
2019-04-06T07:24:12.345Z,9.86
2019-04-06T07:25:12.548Z,10.03
2019-04-06T07:26:12.336Z,10.03
2019-04-06T07:27:12.304Z,9.82
2019-04-06T07:28:12.284Z,9.82
2019-04-06T07:29:12.340Z,9.91
2019-04-06T07:30:12.263Z,10.01
2019-04-06T07:31:12.274Z,10.10
2019-04-06T07:32:12.304Z,10.15
2019-04-06T07:33:12.229Z,10.22
2019-04-06T07:34:12.227Z,10.25
2019-04-06T07:35:12.216Z,10.26
2019-04-06T07:36:12.362Z,10.32
2019-04-06T07:37:12.188Z,10.18
2019-04-06T07:38:12.178Z,10.22
2019-04-06T07:39:12.162Z,10.17
2019-04-06T07:40:12.176Z,10.21
2019-04-06T07:41:12.187Z,10.07
2019-04-06T07:42:12.130Z,10.21
2019-04-06T07:43:12.123Z,10.26
2019-04-06T07:44:12.111Z,10.21
2019-04-06T07:45:12.225Z,10.21
2019-04-06T07:46:12.115Z,10.24
2019-04-06T07:47:12.089Z,10.44
2019-04-06T07:48:12.189Z,10.24
2019-04-06T07:49:12.213Z,10.17
2019-04-06T07:50:12.058Z,9.99
2019-04-06T07:51:12.066Z,10.06
2019-04-06T07:52:12.027Z,10.10
2019-04-06T07:53:12.011Z,10.09
2019-04-06T07:54:12.007Z,10.07
2019-04-06T07:55:11.990Z,10.06
2019-04-06T07:56:12.002Z,10.04
2019-04-06T07:57:12.091Z,10.03
2019-04-06T07:58:11.964Z,10.15
2019-04-06T07:59:11.949Z,10.10
2019-04-06T08:00:11.939Z,10.04
2019-04-06T08:01:11.950Z,10.18
2019-04-06T08:02:11.918Z,10.26
2019-04-06T08:03:11.962Z,10.24
2019-04-06T08:04:11.899Z,10.19
2019-04-06T08:05:11.882Z,10.14
2019-04-06T08:06:11.903Z,10.22
2019-04-06T08:07:11.859Z,10.24
2019-04-06T08:08:11.854Z,10.25
2019-04-06T08:09:12.046Z,10.26
2019-04-06T08:10:11.829Z,10.34
2019-04-06T08:11:11.847Z,10.46
2019-04-06T08:12:11.808Z,10.32
2019-04-06T08:13:11.965Z,10.56
2019-04-06T08:14:11.788Z,10.58
2019-04-06T08:15:11.777Z,10.51
2019-04-06T08:16:11.790Z,10.44
2019-04-06T08:17:11.807Z,10.51
2019-04-06T08:18:11.752Z,10.55
2019-04-06T08:19:11.789Z,10.58
2019-04-06T08:20:11.783Z,10.80
2019-04-06T08:21:11.734Z,10.81
2019-04-06T08:22:11.702Z,10.76
2019-04-06T08:23:11.986Z,10.98
2019-04-06T08:24:11.887Z,10.91
2019-04-06T08:25:11.668Z,10.89
2019-04-06T08:26:11.677Z,10.91
2019-04-06T08:27:11.645Z,11.09
2019-04-06T08:28:11.644Z,10.98
2019-04-06T08:29:11.639Z,11.13
2019-04-06T08:30:11.615Z,11.31
2019-04-06T08:31:11.814Z,11.34
2019-04-06T08:32:11.590Z,11.27
2019-04-06T08:33:11.579Z,11.41
2019-04-06T08:34:13.775Z,11.71
2019-04-06T08:35:11.557Z,11.83
2019-04-06T08:36:11.645Z,12.20
2019-04-06T08:37:11.538Z,12.21
2019-04-06T08:38:11.666Z,12.27
2019-04-06T08:39:11.524Z,12.31
2019-04-06T08:40:11.510Z,12.20
2019-04-06T08:41:11.539Z,12.01
2019-04-06T08:42:11.491Z,12.05
2019-04-06T08:43:11.481Z,12.16
2019-04-06T08:44:11.483Z,12.13
2019-04-06T08:45:13.663Z,12.05
2019-04-06T08:46:11.509Z,11.94
2019-04-06T08:47:11.450Z,12.21
2019-04-06T08:48:11.440Z,12.66
2019-04-06T08:49:11.415Z,13.29
2019-04-06T08:50:11.483Z,13.21
2019-04-06T08:51:11.422Z,13.74
2019-04-06T08:52:11.888Z,13.44
2019-04-06T08:53:11.442Z,12.77
2019-04-06T08:54:11.426Z,12.64
2019-04-06T08:55:11.414Z,12.88
2019-04-06T08:56:11.458Z,12.51
2019-04-06T08:57:11.335Z,12.71
2019-04-06T08:58:11.390Z,12.89
2019-04-06T08:59:13.322Z,13.17
2019-04-06T09:00:11.290Z,12.81
2019-04-06T09:01:11.310Z,12.92
2019-04-06T09:02:11.279Z,13.58
2019-04-06T09:03:11.336Z,14.10
2019-04-06T09:04:11.250Z,13.76
2019-04-06T09:05:11.247Z,13.69
2019-04-06T09:06:11.251Z,13.27
2019-04-06T09:07:11.216Z,13.22
2019-04-06T09:08:11.242Z,13.63
2019-04-06T09:09:11.199Z,14.27
2019-04-06T09:10:11.182Z,14.47
2019-04-06T09:11:11.426Z,14.21
2019-04-06T09:12:11.161Z,14.20
2019-04-06T09:13:11.153Z,14.25
2019-04-06T09:14:11.149Z,14.25
2019-04-06T09:15:11.134Z,14.31
2019-04-06T09:16:11.156Z,14.10
2019-04-06T09:17:11.117Z,13.80
2019-04-06T09:18:11.332Z,13.84
2019-04-06T09:19:11.092Z,14.74
2019-04-06T09:20:11.079Z,15.06
2019-04-06T09:21:11.087Z,15.61
2019-04-06T09:22:11.061Z,15.06
2019-04-06T09:23:11.043Z,15.70
2019-04-06T09:24:11.042Z,15.05
2019-04-06T09:25:11.032Z,15.35
2019-04-06T09:26:11.035Z,15.75
2019-04-06T09:27:10.998Z,15.92
2019-04-06T09:28:10.987Z,16.04
2019-04-06T09:29:21.915Z,15.61
2019-04-06T09:30:11.965Z,14.95
2019-04-06T09:31:10.985Z,14.67
2019-04-06T09:32:10.955Z,13.89
2019-04-06T09:33:10.935Z,13.69
2019-04-06T09:34:10.928Z,13.25
2019-04-06T09:35:10.912Z,13.24
2019-04-06T09:36:10.934Z,13.44
2019-04-06T09:37:10.896Z,13.41
2019-04-06T09:38:10.881Z,13.73
2019-04-06T09:39:10.873Z,13.74
2019-04-06T09:40:10.863Z,14.53
2019-04-06T09:41:10.879Z,15.54
2019-04-06T09:42:10.835Z,15.08
2019-04-06T09:43:10.943Z,15.67
2019-04-06T09:44:10.824Z,15.89
2019-04-06T09:45:10.806Z,16.06
2019-04-06T09:46:10.825Z,16.90
2019-04-06T09:47:10.789Z,16.96
2019-04-06T09:48:10.772Z,16.15
2019-04-06T09:49:10.762Z,14.93
2019-04-06T09:50:10.770Z,13.88
2019-04-06T09:51:10.766Z,14.19
2019-04-06T09:52:10.744Z,15.01
2019-04-06T09:53:11.001Z,15.75
2019-04-06T09:54:10.780Z,15.74
2019-04-06T09:55:10.705Z,15.15
2019-04-06T09:56:10.715Z,14.06
2019-04-06T09:57:10.678Z,14.29
2019-04-06T09:58:10.662Z,14.57
2019-04-06T09:59:10.903Z,14.53
2019-04-06T10:00:10.645Z,14.12
2019-04-06T10:01:10.661Z,14.53
2019-04-06T10:02:10.622Z,15.41
2019-04-06T10:03:10.610Z,15.76
2019-04-06T10:04:10.777Z,15.72
2019-04-06T10:05:10.706Z,14.75
2019-04-06T10:06:10.599Z,15.08
2019-04-06T10:07:10.563Z,15.42
2019-04-06T10:08:10.557Z,15.92
2019-04-06T10:09:10.560Z,16.77
2019-04-06T10:10:10.531Z,17.14
2019-04-06T10:11:10.554Z,17.00
2019-04-06T10:12:10.515Z,16.31
2019-04-06T10:13:10.506Z,15.17
2019-04-06T10:14:10.520Z,14.47
2019-04-06T10:15:10.488Z,14.07
2019-04-06T10:16:10.493Z,14.57
2019-04-06T10:17:10.459Z,15.23
2019-04-06T10:18:10.649Z,14.99
2019-04-06T10:19:10.438Z,15.54
2019-04-06T10:20:10.620Z,16.40
2019-04-06T10:21:10.452Z,16.56
2019-04-06T10:22:10.410Z,17.03
2019-04-06T10:23:10.396Z,17.03
2019-04-06T10:24:10.386Z,16.92
2019-04-06T10:25:11.393Z,17.17
2019-04-06T10:26:10.397Z,17.43
2019-04-06T10:27:10.352Z,17.33
2019-04-06T10:28:10.339Z,17.28
2019-04-06T10:29:10.334Z,17.38
2019-04-06T10:30:10.320Z,17.43
2019-04-06T10:31:10.441Z,17.22
2019-04-06T10:32:10.300Z,17.07
2019-04-06T10:33:10.291Z,16.74
2019-04-06T10:34:10.284Z,17.07
2019-04-06T10:35:10.398Z,16.74
2019-04-06T10:36:10.279Z,15.97
2019-04-06T10:37:10.243Z,16.01
2019-04-06T10:38:10.235Z,16.59
2019-04-06T10:39:10.224Z,17.08
2019-04-06T10:40:10.210Z,17.13
2019-04-06T10:41:10.231Z,17.35
2019-04-06T10:42:10.387Z,17.32
2019-04-06T10:43:10.179Z,17.53
2019-04-06T10:44:10.172Z,17.32
2019-04-06T10:45:10.164Z,17.38
2019-04-06T10:46:10.182Z,17.57
2019-04-06T10:47:10.344Z,17.82
2019-04-06T10:48:10.135Z,17.67
2019-04-06T10:49:10.121Z,17.25
2019-04-06T10:50:10.107Z,17.14
2019-04-06T10:51:10.147Z,16.89
2019-04-06T10:52:10.089Z,17.08
2019-04-06T10:53:10.084Z,17.57
2019-04-06T10:54:10.067Z,17.71
2019-04-06T10:55:10.055Z,17.63
2019-04-06T10:56:10.177Z,17.20
2019-04-06T10:57:10.035Z,17.76
2019-04-06T10:58:10.024Z,17.50
2019-04-06T10:59:10.021Z,16.78
2019-04-06T11:00:10.003Z,16.98
2019-04-06T11:01:10.112Z,16.75
2019-04-06T11:02:09.983Z,16.26
2019-04-06T11:03:09.973Z,15.46
2019-04-06T11:04:10.987Z,15.66
2019-04-06T11:05:09.959Z,15.39
2019-04-06T11:06:09.969Z,15.89
2019-04-06T11:07:09.933Z,16.31
2019-04-06T11:08:09.925Z,17.20
2019-04-06T11:09:09.909Z,17.73
2019-04-06T11:10:09.906Z,17.73
2019-04-06T11:11:09.913Z,18.07
2019-04-06T11:12:10.136Z,19.32
2019-04-06T11:13:09.866Z,19.24
2019-04-06T11:14:09.860Z,18.73
2019-04-06T11:15:09.845Z,18.43
2019-04-06T11:16:09.857Z,18.74
2019-04-06T11:17:09.980Z,18.19
2019-04-06T11:18:09.812Z,17.92
2019-04-06T11:19:10.195Z,17.81
2019-04-06T11:20:09.800Z,18.82
2019-04-06T11:21:09.815Z,18.72
2019-04-06T11:22:09.772Z,18.58
2019-04-06T11:23:09.770Z,18.83
2019-04-06T11:24:09.767Z,19.17
2019-04-06T11:25:09.744Z,19.53
2019-04-06T11:26:09.762Z,19.10
2019-04-06T11:27:09.744Z,18.64
2019-04-06T11:28:09.844Z,19.01
2019-04-06T11:29:09.698Z,19.39
2019-04-06T11:30:13.472Z,19.11
2019-04-06T11:31:09.827Z,19.24
2019-04-06T11:32:09.890Z,18.62
2019-04-06T11:33:09.655Z,18.47
2019-04-06T11:34:09.647Z,18.84
2019-04-06T11:35:09.637Z,19.08
2019-04-06T11:36:09.880Z,19.32
2019-04-06T11:37:09.619Z,18.99
2019-04-06T11:38:09.629Z,19.43
2019-04-06T11:39:09.599Z,20.18
2019-04-06T11:40:09.584Z,20.03
2019-04-06T11:41:09.607Z,19.21
2019-04-06T11:42:09.560Z,18.62
2019-04-06T11:43:09.773Z,18.09
2019-04-06T11:44:09.541Z,18.15
2019-04-06T11:45:09.529Z,19.06
2019-04-06T11:46:09.704Z,18.44
2019-04-06T11:47:09.510Z,18.68
2019-04-06T11:48:09.496Z,18.77
2019-04-06T11:49:09.486Z,19.20
2019-04-06T11:50:09.485Z,19.91
2019-04-06T11:51:09.585Z,19.87
2019-04-06T11:52:09.461Z,18.92
2019-04-06T11:53:09.846Z,18.83
2019-04-06T11:54:09.432Z,18.21
2019-04-06T11:55:09.435Z,18.80
2019-04-06T11:56:09.439Z,18.65
2019-04-06T11:57:09.404Z,18.61
2019-04-06T11:58:09.612Z,19.18
2019-04-06T11:59:09.388Z,19.21
2019-04-06T12:00:09.462Z,19.20
2019-04-06T12:01:09.394Z,18.68
2019-04-06T12:02:09.349Z,18.40
2019-04-06T12:03:09.347Z,18.84
2019-04-06T12:04:09.335Z,18.09
2019-04-06T12:05:09.317Z,18.74
2019-04-06T12:06:09.331Z,19.31
2019-04-06T12:07:09.310Z,18.07
2019-04-06T12:08:09.285Z,18.44
2019-04-06T12:09:09.306Z,17.70
2019-04-06T12:10:09.344Z,18.84
2019-04-06T12:11:09.290Z,18.74
2019-04-06T12:12:09.608Z,19.18
2019-04-06T12:13:09.251Z,19.06
2019-04-06T12:14:09.229Z,19.13
2019-04-06T12:15:09.444Z,18.90
2019-04-06T12:16:09.237Z,19.72
2019-04-06T12:17:09.192Z,20.06
2019-04-06T12:18:09.201Z,19.79
2019-04-06T12:19:09.177Z,20.05
2019-04-06T12:20:09.171Z,19.78
2019-04-06T12:21:09.225Z,19.33
2019-04-06T12:22:09.144Z,19.43
2019-04-06T12:23:09.146Z,19.84
2019-04-06T12:24:09.132Z,19.95
2019-04-06T12:25:09.109Z,19.65
2019-04-06T12:26:09.389Z,19.54
2019-04-06T12:27:09.191Z,20.13
2019-04-06T12:28:09.077Z,20.99
2019-04-06T12:29:09.069Z,20.68
2019-04-06T12:30:09.083Z,20.23
2019-04-06T12:31:09.085Z,20.77
2019-04-06T12:32:09.041Z,20.09
2019-04-06T12:33:09.032Z,20.42
2019-04-06T12:34:09.012Z,20.15
2019-04-06T12:35:09.010Z,20.79
2019-04-06T12:36:09.251Z,20.06
2019-04-06T12:37:09.027Z,19.69
2019-04-06T12:38:08.973Z,19.83
2019-04-06T12:39:08.977Z,20.51
2019-04-06T12:40:09.167Z,21.42
2019-04-06T12:41:08.945Z,21.75
2019-04-06T12:42:09.252Z,22.29
2019-04-06T12:43:08.916Z,21.60
2019-04-06T12:44:08.922Z,21.81
2019-04-06T12:45:09.199Z,21.51
2019-04-06T12:46:08.986Z,21.32
2019-04-06T12:47:08.979Z,21.16
2019-04-06T12:48:08.875Z,21.38
2019-04-06T12:49:08.863Z,21.76
2019-04-06T12:50:08.852Z,22.20
2019-04-06T12:51:08.835Z,21.11
2019-04-06T12:52:08.853Z,20.15
2019-04-06T12:53:08.814Z,19.72
2019-04-06T12:54:08.808Z,19.94
2019-04-06T12:55:08.791Z,20.91
2019-04-06T12:56:08.787Z,20.91
2019-04-06T12:57:08.855Z,21.30
2019-04-06T12:58:08.999Z,21.66
2019-04-06T12:59:08.755Z,21.95
2019-04-06T13:00:08.740Z,22.02
2019-04-06T13:01:08.732Z,21.56
2019-04-06T13:02:08.743Z,21.27
2019-04-06T13:03:09.115Z,21.19
2019-04-06T13:04:08.701Z,21.42
2019-04-06T13:05:08.700Z,21.81
2019-04-06T13:06:08.894Z,21.63
2019-04-06T13:07:08.701Z,21.30